Time;durP1;ratioP1;P1;durP2;ratioP2;P2;SDS_P1;SDS_P2;PMS_P1;PMS_P2;Temp;Humidity;BMP_temperature;BMP_pressure;BME280_temperature;BME280_humidity;BME280_pressure;Samples;Min_cycle;Max_cycle;Signal;HPM_P1;HPM_P2
2024/02/03 00:00:08;;;;;;;0.90;0.90;;;9.50;99.90;;;;;;5043737;28;20196;-67
2024/02/03 00:02:35;;;;;;;1.73;1.17;;;9.50;99.90;;;;;;5047713;28;20207;-67
2024/02/03 00:05:02;;;;;;;1.10;1.10;;;9.50;99.90;;;;;;5050062;28;20197;-67
2024/02/03 00:07:29;;;;;;;0.93;0.93;;;9.50;99.90;;;;;;5050708;28;20262;-67
2024/02/03 00:09:56;;;;;;;1.57;0.90;;;9.50;99.90;;;;;;5050609;28;20204;-67
2024/02/03 00:12:28;;;;;;;2.23;1.10;;;9.50;99.90;;;;;;5049661;28;20761;-68
2024/02/03 00:14:56;;;;;;;1.47;0.80;;;9.50;99.90;;;;;;5049573;28;20648;-68
2024/02/03 00:17:23;;;;;;;1.67;1.10;;;9.50;99.90;;;;;;5049923;28;20274;-68
2024/02/03 00:19:52;;;;;;;1.17;0.90;;;9.50;99.90;;;;;;5049845;28;20280;-67
2024/02/03 00:22:19;;;;;;;1.30;1.00;;;9.50;99.90;;;;;;5047733;28;20197;-67
2024/02/03 00:24:46;;;;;;;0.90;0.90;;;9.50;99.90;;;;;;5050706;28;20228;-68
2024/02/03 00:27:13;;;;;;;0.80;0.80;;;9.50;99.90;;;;;;5049031;28;20194;-68
2024/02/03 00:29:40;;;;;;;1.00;0.87;;;9.50;99.90;;;;;;5050016;28;20675;-68
2024/02/03 00:32:09;;;;;;;1.33;0.87;;;9.50;99.90;;;;;;5049090;28;20211;-68
2024/02/03 00:34:36;;;;;;;0.70;0.70;;;9.50;99.90;;;;;;5048299;28;20205;-68
2024/02/03 00:37:03;;;;;;;3.87;0.90;;;9.50;99.90;;;;;;5045043;28;20557;-67
2024/02/03 00:39:30;;;;;;;2.00;1.10;;;9.50;99.90;;;;;;5050426;28;20283;-67
2024/02/03 00:41:57;;;;;;;0.80;0.80;;;9.50;99.90;;;;;;5043135;28;21049;-67
2024/02/03 00:44:24;;;;;;;0.87;0.80;;;9.50;99.90;;;;;;5043182;28;20199;-66
2024/02/03 00:46:51;;;;;;;2.90;0.90;;;9.50;99.90;;;;;;5045000;28;20194;-66
2024/02/03 00:49:20;;;;;;;0.87;0.87;;;9.50;99.90;;;;;;5046987;28;20301;-66
2024/02/03 00:51:47;;;;;;;1.10;0.80;;;9.50;99.90;;;;;;5036901;28;20208;-67
2024/02/03 00:54:14;;;;;;;0.60;0.60;;;9.50;99.90;;;;;;5049428;28;20283;-67
2024/02/03 00:56:40;;;;;;;1.20;1.10;;;9.50;99.90;;;;;;5045209;28;20301;-67
2024/02/03 00:59:08;;;;;;;0.80;0.80;;;9.50;99.90;;;;;;5048211;28;20216;-67
2024/02/03 01:01:35;;;;;;;0.70;0.70;;;9.50;99.90;;;;;;5048817;28;20708;-67
2024/02/03 01:04:02;;;;;;;0.63;0.60;;;9.50;99.90;;;;;;5048575;28;20235;-67
2024/02/03 01:06:30;;;;;;;0.77;0.70;;;9.50;99.90;;;;;;5049988;28;20275;-67
2024/02/03 01:08:57;;;;;;;1.03;0.80;;;9.50;99.90;;;;;;5048993;28;20654;-67
2024/02/03 01:11:24;;;;;;;0.87;0.60;;;9.50;99.90;;;;;;5038343;28;20202;-67
2024/02/03 01:13:51;;;;;;;0.83;0.70;;;9.50;99.90;;;;;;5049282;28;20198;-67
2024/02/03 01:16:18;;;;;;;0.77;0.60;;;9.50;99.90;;;;;;5049664;28;20210;-67
2024/02/03 01:18:45;;;;;;;1.50;0.87;;;9.50;99.90;;;;;;5048585;28;20200;-67
2024/02/03 01:21:17;;;;;;;0.80;0.70;;;9.50;99.90;;;;;;5046563;28;20568;-67
2024/02/03 01:23:45;;;;;;;2.00;0.90;;;9.50;99.90;;;;;;5049989;28;20207;-67
2024/02/03 01:26:12;;;;;;;1.27;0.83;;;9.50;99.90;;;;;;5047442;28;20725;-66
2024/02/03 01:28:39;;;;;;;0.60;0.60;;;9.50;99.90;;;;;;5049086;28;20211;-67
2024/02/03 01:31:07;;;;;;;0.70;0.70;;;9.50;99.90;;;;;;5049999;28;20210;-67
2024/02/03 01:33:34;;;;;;;1.43;0.80;;;9.50;99.90;;;;;;5049004;28;20206;-68
2024/02/03 01:36:00;;;;;;;0.80;0.80;;;9.50;99.90;;;;;;5048714;28;20247;-67
2024/02/03 01:38:28;;;;;;;0.60;0.60;;;9.50;99.90;;;;;;5045726;28;20207;-67
2024/02/03 01:40:56;;;;;;;1.17;0.63;;;9.50;99.90;;;;;;5049306;28;20227;-67
2024/02/03 01:43:23;;;;;;;2.97;1.00;;;9.50;99.90;;;;;;5047273;28;20204;-66
2024/02/03 01:45:52;;;;;;;0.70;0.70;;;9.50;99.90;;;;;;5048992;28;20192;-67
2024/02/03 01:48:19;;;;;;;0.63;0.63;;;9.50;99.90;;;;;;5047843;28;20194;-67
2024/02/03 01:50:50;;;;;;;1.03;0.80;;;9.50;99.90;;;;;;5049253;28;20224;-67
2024/02/03 01:53:19;;;;;;;0.70;0.70;;;9.40;99.90;;;;;;5043661;28;20649;-67
2024/02/03 01:55:49;;;;;;;1.00;0.70;;;9.40;99.90;;;;;;5047820;28;20318;-67
2024/02/03 01:58:17;;;;;;;0.63;0.60;;;9.40;99.90;;;;;;5049762;28;20197;-67
2024/02/03 02:00:45;;;;;;;0.60;0.60;;;9.40;99.90;;;;;;5049183;28;20193;-67
2024/02/03 02:03:14;;;;;;;0.50;0.50;;;9.40;99.90;;;;;;5051532;28;20308;-67
2024/02/03 02:05:41;;;;;;;0.53;0.50;;;9.40;99.90;;;;;;5052441;28;20598;-67
2024/02/03 02:08:08;;;;;;;0.40;0.40;;;9.40;99.90;;;;;;5045808;28;20199;-67
2024/02/03 02:10:35;;;;;;;0.43;0.43;;;9.40;99.90;;;;;;5051438;28;20267;-67
2024/02/03 02:13:03;;;;;;;1.60;0.53;;;9.40;99.90;;;;;;5051107;28;20202;-67
2024/02/03 02:15:31;;;;;;;0.40;0.40;;;9.40;99.90;;;;;;5051479;28;20189;-67
2024/02/03 02:17:59;;;;;;;0.70;0.70;;;9.40;99.90;;;;;;5052059;28;20203;-67
2024/02/03 02:20:28;;;;;;;0.40;0.40;;;9.40;99.90;;;;;;5051755;28;20216;-67
2024/02/03 02:22:55;;;;;;;0.30;0.30;;;9.40;99.90;;;;;;5049769;28;20241;-67
2024/02/03 02:25:22;;;;;;;1.90;0.50;;;9.40;99.90;;;;;;5052486;28;20212;-67
2024/02/03 02:27:50;;;;;;;0.40;0.40;;;9.30;99.90;;;;;;5052099;28;20195;-67
2024/02/03 02:30:17;;;;;;;1.43;0.47;;;9.40;99.90;;;;;;5051190;28;20572;-67
2024/02/03 02:32:45;;;;;;;0.40;0.30;;;9.30;99.90;;;;;;5051784;28;20198;-67
2024/02/03 02:35:13;;;;;;;0.30;0.30;;;9.40;99.90;;;;;;5051784;28;20203;-67
2024/02/03 02:37:41;;;;;;;0.30;0.20;;;9.40;99.90;;;;;;5051631;28;20216;-66
2024/02/03 02:40:09;;;;;;;0.30;0.30;;;9.40;99.90;;;;;;5050828;28;20710;-66
2024/02/03 02:42:36;;;;;;;0.40;0.40;;;9.40;99.90;;;;;;5051025;28;20658;-66
2024/02/03 02:45:04;;;;;;;0.83;0.50;;;9.40;99.90;;;;;;5052125;28;20197;-67
2024/02/03 02:47:31;;;;;;;0.50;0.50;;;9.40;99.90;;;;;;5051031;28;20244;-67
2024/02/03 02:49:58;;;;;;;0.50;0.50;;;9.50;99.90;;;;;;5045206;28;20205;-67
2024/02/03 02:52:25;;;;;;;1.60;0.70;;;9.50;99.90;;;;;;5050136;28;20197;-67
2024/02/03 02:54:54;;;;;;;0.50;0.30;;;9.50;99.90;;;;;;5052186;28;20283;-67
2024/02/03 02:57:21;;;;;;;1.17;0.50;;;9.50;99.90;;;;;;5051507;28;20194;-66
2024/02/03 02:59:48;;;;;;;0.60;0.53;;;9.50;99.90;;;;;;5051094;28;20204;-66
2024/02/03 03:02:16;;;;;;;0.40;0.40;;;9.50;99.90;;;;;;5051025;28;20200;-66
2024/02/03 03:04:42;;;;;;;0.93;0.70;;;9.50;99.90;;;;;;5050919;28;20225;-66
2024/02/03 03:07:14;;;;;;;0.50;0.50;;;9.50;99.90;;;;;;5049413;28;20288;-67
2024/02/03 03:09:41;;;;;;;0.93;0.30;;;9.50;99.90;;;;;;5048230;28;20458;-67
2024/02/03 03:12:10;;;;;;;0.40;0.40;;;9.50;99.90;;;;;;5050922;28;20287;-67
2024/02/03 03:14:37;;;;;;;0.40;0.40;;;9.50;99.90;;;;;;5051642;28;20201;-67
2024/02/03 03:17:05;;;;;;;0.73;0.60;;;9.50;99.90;;;;;;5051289;28;20214;-67
2024/02/03 03:19:36;;;;;;;2.23;0.40;;;9.50;99.90;;;;;;5051476;28;20220;-67
2024/02/03 03:22:03;;;;;;;0.60;0.37;;;9.50;99.90;;;;;;5050495;28;20297;-67
2024/02/03 03:24:30;;;;;;;0.40;0.40;;;9.50;99.90;;;;;;5049967;28;20204;-67
2024/02/03 03:26:57;;;;;;;0.33;0.33;;;9.50;99.90;;;;;;5050763;28;20192;-67
2024/02/03 03:29:26;;;;;;;0.50;0.50;;;9.50;99.90;;;;;;5049804;28;20556;-67
2024/02/03 03:31:53;;;;;;;0.57;0.30;;;9.50;99.90;;;;;;5050905;28;20196;-67
2024/02/03 03:34:20;;;;;;;0.60;0.30;;;9.50;99.90;;;;;;5042500;28;20192;-67
2024/02/03 03:36:47;;;;;;;0.40;0.40;;;9.60;99.90;;;;;;5049509;28;20248;-67
2024/02/03 03:39:14;;;;;;;0.80;0.67;;;9.60;99.90;;;;;;5051603;28;20255;-67
2024/02/03 03:41:41;;;;;;;1.70;0.60;;;9.60;99.90;;;;;;5048262;28;20632;-67
2024/02/03 03:44:08;;;;;;;0.93;0.60;;;9.60;99.90;;;;;;5050090;28;20290;-67
2024/02/03 03:46:36;;;;;;;1.07;0.90;;;9.60;99.90;;;;;;5043436;28;20693;-67
2024/02/03 03:49:03;;;;;;;1.40;0.70;;;9.60;99.90;;;;;;5048821;28;20200;-67
2024/02/03 03:51:30;;;;;;;1.67;0.83;;;9.60;99.90;;;;;;5050685;28;20572;-67
2024/02/03 03:53:59;;;;;;;1.80;0.77;;;9.60;99.90;;;;;;5050046;28;20247;-67
2024/02/03 03:56:26;;;;;;;1.77;0.97;;;9.60;99.90;;;;;;5051371;28;20205;-67
2024/02/03 03:58:53;;;;;;;1.10;0.90;;;9.60;99.90;;;;;;5049460;28;20274;-67
2024/02/03 04:01:20;;;;;;;2.63;1.10;;;9.60;99.90;;;;;;5050184;28;20284;-67
2024/02/03 04:03:48;;;;;;;1.27;0.90;;;9.60;99.90;;;;;;5048744;28;20239;-67
2024/02/03 04:06:15;;;;;;;2.83;0.83;;;9.60;99.90;;;;;;5051171;28;20371;-67
2024/02/03 04:08:42;;;;;;;2.13;0.90;;;9.60;99.90;;;;;;5049277;28;20558;-67
2024/02/03 04:11:09;;;;;;;2.33;1.03;;;9.60;99.90;;;;;;5049324;28;20656;-67
2024/02/03 04:13:36;;;;;;;0.60;0.60;;;9.50;99.90;;;;;;5049212;28;20205;-67
2024/02/03 04:16:05;;;;;;;1.57;0.67;;;9.60;99.90;;;;;;5049402;28;20821;-67
2024/02/03 04:18:31;;;;;;;0.83;0.50;;;9.60;99.90;;;;;;5048939;28;20690;-67
2024/02/03 04:21:00;;;;;;;1.13;0.60;;;9.60;99.90;;;;;;5048901;28;20665;-67
2024/02/03 04:23:27;;;;;;;0.60;0.50;;;9.60;99.90;;;;;;5049179;28;20199;-67
2024/02/03 04:25:54;;;;;;;0.50;0.50;;;9.60;99.90;;;;;;5050072;28;20323;-67
2024/02/03 04:28:21;;;;;;;2.17;0.97;;;9.60;99.90;;;;;;5050587;28;20193;-67
2024/02/03 04:30:48;;;;;;;0.60;0.60;;;9.60;99.90;;;;;;5050153;28;20498;-67
2024/02/03 04:33:15;;;;;;;1.37;0.57;;;9.60;99.90;;;;;;5048772;28;20228;-67
2024/02/03 04:35:42;;;;;;;0.50;0.50;;;9.70;99.90;;;;;;5050092;28;20258;-67
2024/02/03 04:38:10;;;;;;;0.93;0.60;;;9.70;99.90;;;;;;5049702;28;20243;-67
2024/02/03 04:40:37;;;;;;;0.40;0.40;;;9.70;99.90;;;;;;5045191;28;20229;-67
2024/02/03 04:43:05;;;;;;;0.60;0.60;;;9.70;99.90;;;;;;5043805;28;20205;-67
2024/02/03 04:45:32;;;;;;;0.93;0.63;;;9.70;99.90;;;;;;5049809;28;20657;-67
2024/02/03 04:47:59;;;;;;;0.53;0.53;;;9.70;99.90;;;;;;5049436;28;20577;-67
2024/02/03 04:50:27;;;;;;;1.60;0.63;;;9.70;99.90;;;;;;5043113;28;20197;-68
2024/02/03 04:52:54;;;;;;;0.50;0.50;;;9.60;99.90;;;;;;5045258;28;20190;-67
2024/02/03 04:55:23;;;;;;;1.53;0.77;;;9.60;99.90;;;;;;5059765;28;20201;-67
2024/02/03 04:57:50;;;;;;;0.80;0.60;;;9.60;99.90;;;;;;5050499;28;20704;-67
2024/02/03 05:00:18;;;;;;;0.30;0.30;;;9.60;99.90;;;;;;5050009;28;20234;-68
2024/02/03 05:02:45;;;;;;;0.60;0.60;;;9.60;99.90;;;;;;5049204;28;20204;-68
2024/02/03 05:05:12;;;;;;;0.50;0.50;;;9.60;99.90;;;;;;5048192;28;20199;-67
2024/02/03 05:07:39;;;;;;;0.53;0.53;;;9.60;99.90;;;;;;5050402;28;20200;-67
2024/02/03 05:10:07;;;;;;;0.40;0.40;;;9.50;99.90;;;;;;5048757;28;20290;-67
2024/02/03 05:12:35;;;;;;;0.70;0.50;;;9.50;99.90;;;;;;5046498;28;20207;-67
2024/02/03 05:15:03;;;;;;;0.67;0.50;;;9.50;99.90;;;;;;5048534;28;20221;-67
2024/02/03 05:17:31;;;;;;;0.63;0.50;;;9.50;99.90;;;;;;5048232;28;20591;-67
2024/02/03 05:19:58;;;;;;;1.37;0.50;;;9.50;99.90;;;;;;5048919;28;20225;-68
2024/02/03 05:22:25;;;;;;;0.43;0.43;;;9.60;99.90;;;;;;5049698;28;20212;-67
2024/02/03 05:24:52;;;;;;;0.40;0.40;;;9.50;99.90;;;;;;5045365;28;20232;-67
2024/02/03 05:27:19;;;;;;;0.53;0.40;;;9.60;99.90;;;;;;5048581;28;20277;-67
2024/02/03 05:29:48;;;;;;;0.93;0.47;;;9.50;99.90;;;;;;5048220;28;20208;-67
2024/02/03 05:32:15;;;;;;;1.53;0.70;;;9.50;99.90;;;;;;5049347;28;20200;-67
2024/02/03 05:34:42;;;;;;;0.50;0.50;;;9.60;99.90;;;;;;5043611;28;20282;-67
2024/02/03 05:37:09;;;;;;;0.67;0.67;;;9.60;99.90;;;;;;5049102;28;20316;-67
2024/02/03 05:39:37;;;;;;;0.93;0.70;;;9.60;99.90;;;;;;5048293;28;20650;-66
2024/02/03 05:42:04;;;;;;;1.23;0.70;;;9.60;99.90;;;;;;5051266;28;20245;-67
2024/02/03 05:44:31;;;;;;;0.70;0.70;;;9.60;99.90;;;;;;5050557;28;20265;-67
2024/02/03 05:47:00;;;;;;;2.37;0.73;;;9.60;99.90;;;;;;5052793;28;20290;-67
2024/02/03 05:49:27;;;;;;;1.40;0.80;;;9.60;99.90;;;;;;5051362;28;20191;-67
2024/02/03 05:51:54;;;;;;;1.03;0.80;;;9.60;99.90;;;;;;5047883;28;20292;-67
2024/02/03 05:54:21;;;;;;;0.47;0.40;;;9.70;99.90;;;;;;5051912;28;20204;-67
2024/02/03 05:56:48;;;;;;;0.70;0.70;;;9.70;99.90;;;;;;5051692;28;20230;-67
2024/02/03 05:59:15;;;;;;;1.83;0.90;;;9.70;99.90;;;;;;5052320;28;20233;-67
2024/02/03 06:01:42;;;;;;;2.03;1.00;;;9.70;99.90;;;;;;5052440;28;20264;-66
2024/02/03 06:04:10;;;;;;;1.03;0.67;;;9.70;99.90;;;;;;5049856;28;20574;-66
2024/02/03 06:06:38;;;;;;;1.13;0.87;;;9.80;99.90;;;;;;5052798;28;20212;-67
2024/02/03 06:09:05;;;;;;;1.00;0.90;;;9.80;99.90;;;;;;5050891;28;20203;-67
2024/02/03 06:11:32;;;;;;;1.10;0.80;;;9.80;99.90;;;;;;5051387;28;20613;-67
2024/02/03 06:13:59;;;;;;;1.43;0.80;;;9.80;99.90;;;;;;5051640;28;20253;-67
2024/02/03 06:16:26;;;;;;;1.73;0.80;;;9.80;99.90;;;;;;5049985;28;20200;-66
2024/02/03 06:18:53;;;;;;;0.87;0.77;;;9.80;99.90;;;;;;5050943;28;20231;-66
2024/02/03 06:21:21;;;;;;;3.10;1.23;;;9.80;99.90;;;;;;5042517;28;20284;-66
2024/02/03 06:23:48;;;;;;;2.40;1.00;;;9.80;99.90;;;;;;5049546;28;20646;-66
2024/02/03 06:26:15;;;;;;;2.03;1.10;;;9.80;99.90;;;;;;5052631;28;20711;-67
2024/02/03 06:28:42;;;;;;;1.03;0.80;;;9.80;99.90;;;;;;5051753;28;20265;-66
2024/02/03 06:31:09;;;;;;;1.97;1.03;;;9.80;99.90;;;;;;5051564;28;20568;-66
2024/02/03 06:33:36;;;;;;;0.60;0.60;;;9.80;99.90;;;;;;5050904;28;20277;-67
2024/02/03 06:36:03;;;;;;;1.53;0.93;;;9.80;99.90;;;;;;5051487;28;20266;-67
2024/02/03 06:38:31;;;;;;;2.87;0.70;;;9.80;99.90;;;;;;5050491;28;20211;-67
2024/02/03 06:40:58;;;;;;;2.73;0.90;;;9.80;99.90;;;;;;5051606;28;20193;-67
2024/02/03 06:43:25;;;;;;;0.90;0.87;;;9.80;99.90;;;;;;5051489;28;20232;-67
2024/02/03 06:45:53;;;;;;;1.70;0.90;;;9.80;99.90;;;;;;5049686;28;20322;-68
2024/02/03 06:48:20;;;;;;;2.70;1.37;;;9.80;99.90;;;;;;5050071;28;20800;-68
2024/02/03 06:50:48;;;;;;;1.77;1.23;;;9.80;99.90;;;;;;5050719;28;20201;-67
2024/02/03 06:53:16;;;;;;;3.63;1.10;;;9.80;99.90;;;;;;5051457;28;20205;-67
2024/02/03 06:55:44;;;;;;;1.70;1.37;;;9.80;99.90;;;;;;5049142;28;20250;-67
2024/02/03 06:58:11;;;;;;;2.73;1.40;;;9.90;99.90;;;;;;5051501;28;20219;-67
2024/02/03 07:00:38;;;;;;;3.17;1.40;;;9.90;99.90;;;;;;5051476;28;20197;-67
2024/02/03 07:03:05;;;;;;;3.43;1.50;;;9.90;99.90;;;;;;5051810;28;20229;-68
2024/02/03 07:05:32;;;;;;;3.60;1.90;;;9.90;99.90;;;;;;5049602;28;20599;-68
2024/02/03 07:08:01;;;;;;;3.00;1.83;;;9.90;99.90;;;;;;5051808;28;20220;-67
2024/02/03 07:10:28;;;;;;;4.97;1.80;;;9.90;99.90;;;;;;5050511;28;20283;-67
2024/02/03 07:12:58;;;;;;;4.00;1.93;;;9.90;99.90;;;;;;5051953;28;20205;-67
2024/02/03 07:15:25;;;;;;;4.70;1.90;;;9.90;99.90;;;;;;5049909;28;20191;-67
2024/02/03 07:17:52;;;;;;;5.70;2.03;;;9.90;99.90;;;;;;5049906;28;20224;-67
2024/02/03 07:20:19;;;;;;;4.97;2.37;;;9.90;99.90;;;;;;5049143;28;20745;-67
2024/02/03 07:22:46;;;;;;;2.33;1.67;;;10.00;99.90;;;;;;5050023;28;20221;-67
2024/02/03 07:25:13;;;;;;;1.97;1.57;;;10.00;99.90;;;;;;5049109;28;20640;-68
2024/02/03 07:27:41;;;;;;;3.13;1.67;;;10.00;99.90;;;;;;5048112;28;20202;-67
2024/02/03 07:30:10;;;;;;;5.47;1.60;;;10.00;99.90;;;;;;5050663;28;20827;-67
2024/02/03 07:32:37;;;;;;;4.23;1.50;;;10.00;99.90;;;;;;5044843;28;20391;-67
2024/02/03 07:35:06;;;;;;;2.43;1.70;;;10.00;99.90;;;;;;5045592;28;20295;-67
2024/02/03 07:37:33;;;;;;;1.97;1.47;;;10.10;99.90;;;;;;5049117;28;20194;-67
2024/02/03 07:40:00;;;;;;;3.33;2.00;;;10.10;99.90;;;;;;5051082;28;20210;-67
2024/02/03 07:42:27;;;;;;;3.67;1.57;;;10.10;99.90;;;;;;5051288;28;20189;-67
2024/02/03 07:44:54;;;;;;;3.30;1.60;;;10.10;99.90;;;;;;5049482;28;20260;-66
2024/02/03 07:47:22;;;;;;;3.60;1.43;;;10.10;99.90;;;;;;5050868;28;20193;-67
2024/02/03 07:49:49;;;;;;;4.50;1.63;;;10.10;99.90;;;;;;5049990;28;20190;-67
2024/02/03 07:52:18;;;;;;;4.33;1.80;;;10.20;99.90;;;;;;5049115;28;20659;-67
2024/02/03 07:54:45;;;;;;;4.80;1.43;;;10.20;99.90;;;;;;5051131;28;20192;-66
2024/02/03 07:57:12;;;;;;;4.87;1.97;;;10.20;99.90;;;;;;5049632;28;20259;-67
2024/02/03 07:59:39;;;;;;;5.50;1.87;;;10.20;99.90;;;;;;5050723;28;20299;-66
2024/02/03 08:02:06;;;;;;;3.70;1.63;;;10.20;99.90;;;;;;5051468;28;20224;-66
2024/02/03 08:04:35;;;;;;;5.00;1.43;;;10.20;99.90;;;;;;5050674;28;20585;-67
2024/02/03 08:07:02;;;;;;;4.80;1.83;;;10.20;99.90;;;;;;5051856;28;20204;-67
2024/02/03 08:09:29;;;;;;;4.10;1.40;;;10.30;99.90;;;;;;5051499;28;20196;-67
2024/02/03 08:11:58;;;;;;;4.93;1.67;;;10.30;99.90;;;;;;5051761;28;20286;-66
2024/02/03 08:14:25;;;;;;;3.40;1.60;;;10.30;99.90;;;;;;5051015;28;20215;-67
2024/02/03 08:16:52;;;;;;;5.37;1.67;;;10.40;99.90;;;;;;5050936;28;20220;-67
2024/02/03 08:19:19;;;;;;;5.10;1.87;;;10.40;99.90;;;;;;5068163;28;20252;-67
2024/02/03 08:21:48;;;;;;;7.83;1.53;;;10.50;99.90;;;;;;5054059;28;20637;-67
2024/02/03 08:24:15;;;;;;;4.13;1.60;;;10.50;99.90;;;;;;5050388;28;20194;-67
2024/02/03 08:26:42;;;;;;;4.50;2.00;;;10.50;99.90;;;;;;5050541;28;20204;-67
2024/02/03 08:29:11;;;;;;;5.90;1.77;;;10.50;99.90;;;;;;5049419;28;20243;-67
2024/02/03 08:31:38;;;;;;;3.33;1.70;;;10.50;99.90;;;;;;5050171;28;20284;-67
2024/02/03 08:34:05;;;;;;;6.33;1.60;;;10.50;99.90;;;;;;5050005;28;20252;-67
2024/02/03 08:36:32;;;;;;;6.33;2.10;;;10.60;99.90;;;;;;5049460;28;20208;-67
2024/02/03 08:39:00;;;;;;;6.97;1.83;;;10.60;99.90;;;;;;5050195;28;20300;-66
2024/02/03 08:41:27;;;;;;;7.80;1.80;;;10.60;99.90;;;;;;5050250;28;20228;-67
2024/02/03 08:43:54;;;;;;;3.87;1.50;;;10.70;99.90;;;;;;5049799;28;20302;-67
2024/02/03 08:46:22;;;;;;;3.37;1.50;;;10.80;99.90;;;;;;5048283;28;20206;-67
2024/02/03 08:48:49;;;;;;;6.63;1.80;;;11.00;99.90;;;;;;5049362;28;20663;-68
2024/02/03 08:51:17;;;;;;;3.30;1.33;;;11.40;99.90;;;;;;5050375;28;20270;-67
2024/02/03 08:53:44;;;;;;;8.73;1.87;;;11.80;99.90;;;;;;5048972;28;20202;-67
2024/02/03 08:56:13;;;;;;;7.73;1.80;;;12.20;99.90;;;;;;5049807;28;20193;-67
2024/02/03 08:58:40;;;;;;;3.60;1.40;;;12.50;99.90;;;;;;5049418;28;20233;-67
2024/02/03 09:01:07;;;;;;;1.93;1.20;;;12.60;99.90;;;;;;5049077;28;20205;-67
2024/02/03 09:03:34;;;;;;;2.83;1.43;;;12.70;99.90;;;;;;5048900;28;20775;-67
2024/02/03 09:06:01;;;;;;;5.10;1.33;;;12.80;99.90;;;;;;5048872;28;20201;-67
2024/02/03 09:08:28;;;;;;;4.57;1.37;;;12.80;99.90;;;;;;5049688;28;20222;-67
2024/02/03 09:10:55;;;;;;;7.40;1.73;;;12.70;99.90;;;;;;5051506;28;20752;-67
2024/02/03 09:13:24;;;;;;;2.77;1.20;;;12.70;99.90;;;;;;5053489;28;20197;-66
2024/02/03 09:15:51;;;;;;;2.57;1.10;;;12.50;99.90;;;;;;5052599;28;20224;-67
2024/02/03 09:18:18;;;;;;;2.67;1.33;;;12.30;99.90;;;;;;5052829;28;20218;-67
2024/02/03 09:20:45;;;;;;;6.47;1.70;;;12.20;99.90;;;;;;5049421;28;20273;-67
2024/02/03 09:23:12;;;;;;;4.03;1.50;;;12.10;99.90;;;;;;5051760;28;20661;-67
2024/02/03 09:25:39;;;;;;;2.50;1.23;;;12.10;99.90;;;;;;5052267;28;20275;-68
2024/02/03 09:28:07;;;;;;;2.70;1.50;;;12.10;99.90;;;;;;5053764;28;20225;-68
2024/02/03 09:30:35;;;;;;;6.03;1.57;;;12.20;99.90;;;;;;5052155;28;20200;-67
2024/02/03 09:33:02;;;;;;;3.27;1.70;;;12.10;99.90;;;;;;5047573;28;20708;-67
2024/02/03 09:35:29;;;;;;;7.43;1.23;;;12.10;99.90;;;;;;5051937;28;20647;-67
2024/02/03 09:37:56;;;;;;;3.40;1.40;;;12.20;99.90;;;;;;5053242;28;20252;-68
2024/02/03 09:40:23;;;;;;;2.93;1.23;;;12.40;99.90;;;;;;5052166;28;20194;-68
2024/02/03 09:42:52;;;;;;;4.80;1.50;;;12.80;99.90;;;;;;5053738;28;20660;-68
2024/02/03 09:45:21;;;;;;;6.67;1.80;;;13.20;99.90;;;;;;5052360;28;20608;-68
2024/02/03 09:47:50;;;;;;;3.27;1.40;;;13.30;99.90;;;;;;5046722;28;20221;-69
2024/02/03 09:50:17;;;;;;;4.40;1.80;;;13.20;99.90;;;;;;5051407;28;20240;-68
2024/02/03 09:52:45;;;;;;;3.20;1.10;;;13.10;99.90;;;;;;5047515;28;20190;-68
2024/02/03 09:55:12;;;;;;;3.97;2.07;;;12.90;99.90;;;;;;5049169;28;20196;-68
2024/02/03 09:57:39;;;;;;;3.93;1.50;;;12.70;99.90;;;;;;5048472;28;20744;-67
2024/02/03 10:00:08;;;;;;;2.90;1.33;;;12.60;99.90;;;;;;5046187;28;20301;-68
2024/02/03 10:02:36;;;;;;;2.83;1.20;;;12.50;99.90;;;;;;5047315;28;20807;-67
2024/02/03 10:05:06;;;;;;;2.83;1.20;;;12.40;99.90;;;;;;5049160;28;20236;-68
2024/02/03 10:07:33;;;;;;;4.70;1.47;;;12.40;99.90;;;;;;5048240;28;20213;-68
2024/02/03 10:10:05;;;;;;;5.60;1.40;;;12.40;99.90;;;;;;5045915;28;20296;-68
2024/02/03 10:12:33;;;;;;;5.70;1.60;;;12.80;99.90;;;;;;5052045;28;20653;-68
2024/02/03 10:15:01;;;;;;;3.47;1.10;;;13.20;99.90;;;;;;5047864;28;20211;-68
2024/02/03 10:17:29;;;;;;;5.93;1.43;;;13.90;99.90;;;;;;5048437;28;20663;-67
2024/02/03 10:19:56;;;;;;;3.00;1.57;;;14.50;99.90;;;;;;5031445;28;20270;-67
2024/02/03 10:22:24;;;;;;;3.87;1.50;;;15.00;99.90;;;;;;5041735;28;20249;-67
2024/02/03 10:24:51;;;;;;;6.73;1.50;;;15.60;99.90;;;;;;5052452;28;20275;-67
2024/02/03 10:27:24;;;;;;;2.63;1.23;;;16.00;99.90;;;;;;5050410;28;20239;-67
2024/02/03 10:29:55;;;;;;;4.17;1.33;;;16.40;99.90;;;;;;5049176;28;20220;-67
2024/02/03 10:32:22;;;;;;;4.53;1.47;;;16.50;99.80;;;;;;5051601;28;20232;-68
2024/02/03 10:34:51;;;;;;;3.13;1.07;;;16.50;99.10;;;;;;5049448;28;20201;-67
2024/02/03 10:37:18;;;;;;;3.17;1.30;;;16.30;98.80;;;;;;5050554;28;20193;-67
2024/02/03 10:39:47;;;;;;;2.00;1.30;;;16.00;98.80;;;;;;5051408;28;20214;-67
2024/02/03 10:42:21;;;;;;;3.70;1.23;;;15.60;99.00;;;;;;5052312;28;20304;-68
2024/02/03 10:44:49;;;;;;;3.37;1.13;;;15.30;99.60;;;;;;5051574;28;20918;-67
2024/02/03 10:47:22;;;;;;;3.63;1.60;;;15.00;99.90;;;;;;5049955;28;20563;-68
2024/02/03 10:49:49;;;;;;;2.90;1.20;;;15.00;99.80;;;;;;5050206;28;20368;-68
2024/02/03 10:52:20;;;;;;;6.57;1.30;;;14.80;99.80;;;;;;5051542;28;20728;-67
2024/02/03 10:54:52;;;;;;;4.87;1.53;;;14.50;99.90;;;;;;5050262;28;20195;-68
2024/02/03 10:57:22;;;;;;;4.10;1.17;;;14.30;99.90;;;;;;5050160;28;20362;-68
2024/02/03 10:59:49;;;;;;;4.17;1.27;;;14.30;99.90;;;;;;5034201;28;20307;-67
2024/02/03 11:02:17;;;;;;;3.57;1.73;;;14.50;99.90;;;;;;5044260;28;20262;-67
2024/02/03 11:04:48;;;;;;;4.60;1.50;;;14.80;99.90;;;;;;5038814;28;20295;-67
2024/02/03 11:07:22;;;;;;;3.97;1.30;;;15.20;99.50;;;;;;5029675;28;20220;-66
2024/02/03 11:09:54;;;;;;;4.00;1.37;;;15.30;99.40;;;;;;5048958;28;20280;-68
2024/02/03 11:12:22;;;;;;;6.87;1.80;;;15.30;99.10;;;;;;5043434;28;20193;-68
2024/02/03 11:14:49;;;;;;;3.87;1.70;;;15.10;98.80;;;;;;5044249;28;20312;-68
2024/02/03 11:17:16;;;;;;;3.63;1.37;;;14.90;98.90;;;;;;5045023;28;20208;-67
2024/02/03 11:19:45;;;;;;;7.53;1.43;;;14.90;98.80;;;;;;5044116;28;21028;-67
2024/02/03 11:22:16;;;;;;;4.83;1.60;;;15.00;98.60;;;;;;5040090;28;20606;-67
2024/02/03 11:24:44;;;;;;;2.57;1.40;;;15.20;98.20;;;;;;5048311;28;20220;-68
2024/02/03 11:27:13;;;;;;;2.13;1.07;;;15.20;97.80;;;;;;5043881;28;20649;-68
2024/02/03 11:29:40;;;;;;;5.43;1.80;;;15.20;97.90;;;;;;5042708;28;20538;-68
2024/02/03 11:32:08;;;;;;;6.23;1.43;;;15.00;97.70;;;;;;5046179;28;20221;-68
2024/02/03 11:34:37;;;;;;;5.00;1.50;;;14.90;97.30;;;;;;5046845;28;20255;-67
2024/02/03 11:37:05;;;;;;;4.90;1.50;;;14.90;97.00;;;;;;5048516;28;20208;-67
2024/02/03 11:39:33;;;;;;;4.47;1.70;;;14.90;96.80;;;;;;5046269;28;20286;-67
2024/02/03 11:42:03;;;;;;;3.70;1.47;;;14.90;96.60;;;;;;5036867;28;20208;-67
2024/02/03 11:44:36;;;;;;;5.27;1.43;;;14.80;96.20;;;;;;5049153;28;20199;-67
2024/02/03 11:47:04;;;;;;;5.70;1.70;;;14.60;96.30;;;;;;5048835;28;20652;-67
2024/02/03 11:49:32;;;;;;;5.53;1.60;;;14.40;96.50;;;;;;5045542;28;20193;-67
2024/02/03 11:52:00;;;;;;;8.33;2.03;;;14.30;96.80;;;;;;5048715;28;20226;-67
2024/02/03 11:54:27;;;;;;;7.60;1.60;;;14.00;97.00;;;;;;5049223;28;20196;-67
2024/02/03 11:56:55;;;;;;;5.30;1.50;;;13.80;97.00;;;;;;5049152;28;20191;-67
2024/02/03 11:59:27;;;;;;;7.03;1.90;;;13.70;97.40;;;;;;5048762;28;20294;-67
2024/02/03 12:01:56;;;;;;;9.77;1.93;;;13.70;97.80;;;;;;5049786;28;20601;-68
2024/02/03 12:04:27;;;;;;;4.47;1.60;;;13.60;98.00;;;;;;5043409;28;20255;-66
2024/02/03 12:06:56;;;;;;;6.30;2.07;;;13.50;98.10;;;;;;5061891;28;20680;-68
2024/02/03 12:09:24;;;;;;;10.33;1.90;;;13.40;98.10;;;;;;5037527;28;20271;-67
2024/02/03 12:11:52;;;;;;;9.10;1.80;;;13.40;98.40;;;;;;5045438;28;20189;-68
2024/02/03 12:14:21;;;;;;;3.93;1.50;;;13.40;98.70;;;;;;5038739;28;20212;-67
2024/02/03 12:16:48;;;;;;;7.10;1.97;;;13.40;98.90;;;;;;5048388;28;20191;-68
2024/02/03 12:19:17;;;;;;;7.40;1.80;;;13.40;99.30;;;;;;5045912;28;20219;-68
2024/02/03 12:21:45;;;;;;;8.97;1.90;;;13.30;99.30;;;;;;5046950;28;20249;-67
2024/02/03 12:24:13;;;;;;;4.27;1.50;;;13.30;99.60;;;;;;5045551;28;20199;-67
2024/02/03 12:26:42;;;;;;;9.00;2.30;;;13.30;99.30;;;;;;5049584;28;20281;-67
2024/02/03 12:29:09;;;;;;;5.43;1.47;;;13.20;99.50;;;;;;5050072;28;20665;-67
2024/02/03 12:31:37;;;;;;;11.80;2.03;;;13.10;99.60;;;;;;5050396;28;20200;-67
2024/02/03 12:34:04;;;;;;;6.47;2.10;;;13.00;99.70;;;;;;5043944;28;20196;-68
2024/02/03 12:36:33;;;;;;;4.60;1.80;;;12.80;99.80;;;;;;5049844;28;20266;-68
2024/02/03 12:39:00;;;;;;;5.90;2.07;;;12.80;99.90;;;;;;5050144;28;20273;-68
2024/02/03 12:41:27;;;;;;;7.47;2.27;;;12.70;99.90;;;;;;5049378;28;20201;-67
2024/02/03 12:43:54;;;;;;;5.90;1.87;;;12.70;99.90;;;;;;5069717;28;20182;-67
2024/02/03 12:46:23;;;;;;;6.60;2.20;;;12.70;99.90;;;;;;5042328;28;22465;-68
2024/02/03 12:48:50;;;;;;;11.03;2.17;;;12.70;99.90;;;;;;5045388;28;20605;-68
2024/02/03 12:51:18;;;;;;;14.97;2.40;;;12.80;99.90;;;;;;5049302;28;20198;-67
2024/02/03 12:53:47;;;;;;;11.87;2.53;;;12.70;99.90;;;;;;5050259;28;20192;-67